Time;durP1;ratioP1;P1;durP2;ratioP2;P2;SDS_P1;SDS_P2;PMS_P1;PMS_P2;Temp;Humidity;BMP_temperature;BMP_pressure;BME280_temperature;BME280_humidity;BME280_pressure;Samples;Min_cycle;Max_cycle;Signal;HPM_P1;HPM_P2
2021/05/28 00:01:35;;;;;;;23.52;21.10;;;;;;;18.14;83.30;99673.53;4935386;29;20134;-59
2021/05/28 00:04:01;;;;;;;23.88;21.35;;;;;;;18.18;82.74;99660.19;4930270;29;20035;-58
2021/05/28 00:06:28;;;;;;;23.45;21.02;;;;;;;18.18;82.13;99654.94;4931728;29;20028;-58
2021/05/28 00:08:54;;;;;;;26.58;23.70;;;;;;;18.15;82.97;99665.59;4938167;29;20027;-58
2021/05/28 00:11:20;;;;;;;26.48;23.67;;;;;;;17.96;83.75;99664.84;4930586;29;20038;-58
2021/05/28 00:13:45;;;;;;;31.45;28.08;;;;;;;17.87;83.81;99658.28;4931509;29;20043;-58
2021/05/28 00:16:11;;;;;;;27.95;23.02;;;;;;;18.00;83.30;99664.63;4929176;29;20220;-58
2021/05/28 00:18:37;;;;;;;24.17;21.70;;;;;;;18.02;82.27;99661.94;4940445;29;20320;-58
2021/05/28 00:21:03;;;;;;;25.02;22.67;;;;;;;18.01;83.16;99655.81;4927006;29;20038;-58
2021/05/28 00:23:29;;;;;;;27.02;22.63;;;;;;;18.04;82.54;99655.69;4937794;29;20027;-58
2021/05/28 00:25:58;;;;;;;27.02;23.92;;;;;;;18.00;81.96;99656.78;4930275;29;20095;-58
2021/05/28 00:28:24;;;;;;;30.80;25.83;;;;;;;17.97;82.80;99654.31;4945466;29;20034;-57
2021/05/28 00:30:50;;;;;;;34.95;28.30;;;;;;;17.94;82.86;99663.19;4945393;29;20024;-59
2021/05/28 00:33:16;;;;;;;28.42;25.63;;;;;;;17.97;82.17;99654.31;4942639;29;20084;-59
2021/05/28 00:35:42;;;;;;;33.00;27.98;;;;;;;17.93;82.67;99652.78;4934608;29;20225;-58
2021/05/28 00:38:07;;;;;;;35.40;29.08;;;;;;;17.92;83.12;99653.72;4936000;29;20034;-59
2021/05/28 00:40:33;;;;;;;31.58;28.17;;;;;;;17.85;82.89;99632.19;4945331;29;20032;-59
2021/05/28 00:42:59;;;;;;;31.33;27.88;;;;;;;17.89;83.26;99638.13;4929778;29;20032;-58
2021/05/28 00:45:25;;;;;;;32.25;28.02;;;;;;;17.93;82.80;99647.53;4944053;29;20035;-58
2021/05/28 00:47:51;;;;;;;32.47;29.17;;;;;;;17.83;82.98;99638.41;4937873;29;20028;-58
2021/05/28 00:50:17;;;;;;;32.97;29.25;;;;;;;17.75;83.10;99634.44;4941381;29;20048;-58
2021/05/28 00:52:43;;;;;;;33.35;28.98;;;;;;;17.87;83.31;99645.19;4940453;29;20027;-59
2021/05/28 00:55:09;;;;;;;37.63;31.38;;;;;;;17.90;82.92;99635.44;4936754;29;20047;-59
2021/05/28 00:57:35;;;;;;;38.10;32.08;;;;;;;17.90;83.06;99647.66;4945184;29;20339;-59
2021/05/28 01:00:05;;;;;;;34.00;30.50;;;;;;;17.96;82.80;99644.75;4936690;29;20027;-59
2021/05/28 01:02:32;;;;;;;36.55;32.10;;;;;;;17.92;83.19;99637.97;4935803;29;20052;-59
2021/05/28 01:04:58;;;;;;;39.08;35.08;;;;;;;17.90;82.76;99642.41;4934441;29;20099;-57
2021/05/28 01:07:23;;;;;;;40.22;35.85;;;;;;;17.91;83.10;99633.66;4945025;29;20027;-58
2021/05/28 01:09:49;;;;;;;39.70;35.20;;;;;;;17.86;82.96;99627.81;4938074;29;20312;-58
2021/05/28 01:12:15;;;;;;;37.47;33.58;;;;;;;17.87;82.42;99632.97;4927889;29;20039;-58
2021/05/28 01:14:41;;;;;;;38.88;34.78;;;;;;;17.84;83.06;99629.66;4937371;29;20035;-58
2021/05/28 01:17:07;;;;;;;39.08;34.92;;;;;;;17.89;83.08;99635.50;4943546;29;20036;-59
2021/05/28 01:19:32;;;;;;;38.03;33.33;;;;;;;17.88;82.77;99646.91;4931190;29;20030;-59
2021/05/28 01:22:06;;;;;;;41.03;36.47;;;;;;;17.84;83.50;99651.47;4929558;29;20249;-59
2021/05/28 01:24:32;;;;;;;44.47;37.50;;;;;;;17.83;83.76;99654.13;4940226;29;20040;-59
2021/05/28 01:26:59;;;;;;;54.10;45.22;;;;;;;17.67;85.92;99659.31;4941815;29;20055;-59
2021/05/28 01:29:25;;;;;;;63.10;50.65;;;;;;;17.52;86.63;99660.97;4933499;29;20308;-59
2021/05/28 01:31:51;;;;;;;62.50;48.63;;;;;;;17.68;85.38;99655.78;4926264;29;20032;-59
2021/05/28 01:34:17;;;;;;;80.25;56.25;;;;;;;17.62;86.17;99656.13;4929023;29;20062;-59
2021/05/28 01:36:43;;;;;;;83.45;58.03;;;;;;;17.51;86.89;99643.56;4937573;29;20099;-58
2021/05/28 01:39:10;;;;;;;87.72;58.17;;;;;;;17.48;87.13;99643.72;4926293;29;20032;-58
2021/05/28 01:41:36;;;;;;;100.20;63.38;;;;;;;17.38;87.96;99644.16;4933778;29;20028;-58
2021/05/28 01:44:08;;;;;;;85.47;58.90;;;;;;;17.51;87.18;99646.19;4941453;29;20284;-58
2021/05/28 01:46:33;;;;;;;97.82;64.47;;;;;;;17.46;87.73;99641.19;4926014;29;20103;-57
2021/05/28 01:49:00;;;;;;;85.28;55.20;;;;;;;17.62;86.62;99643.03;4933884;29;20138;-58
2021/05/28 01:51:26;;;;;;;77.00;53.10;;;;;;;17.64;86.45;99646.41;4944626;29;20031;-58
2021/05/28 01:53:51;;;;;;;84.70;58.33;;;;;;;17.65;86.60;99653.34;4929559;29;20345;-58
2021/05/28 01:56:17;;;;;;;86.28;57.50;;;;;;;17.65;86.77;99648.94;4944105;29;20038;-58
2021/05/28 01:58:43;;;;;;;87.93;59.15;;;;;;;17.70;86.52;99644.31;4944721;29;20032;-58
2021/05/28 02:01:08;;;;;;;86.72;58.78;;;;;;;17.65;86.88;99650.72;4936696;29;20357;-59
2021/05/28 02:03:34;;;;;;;95.28;61.83;;;;;;;17.61;87.60;99642.16;4946195;29;20027;-59
2021/05/28 02:06:00;;;;;;;82.70;56.33;;;;;;;17.67;87.48;99644.47;4947467;29;20023;-58
2021/05/28 02:08:26;;;;;;;88.13;55.08;;;;;;;17.77;86.75;99640.44;4936596;29;20221;-58
2021/05/28 02:10:51;;;;;;;96.78;61.70;;;;;;;17.83;86.68;99641.03;4929198;29;20020;-58
2021/05/28 02:13:17;;;;;;;81.63;53.45;;;;;;;17.90;86.70;99634.56;4929195;29;20086;-58
2021/05/28 02:15:43;;;;;;;83.90;56.47;;;;;;;17.86;86.56;99633.03;4934928;29;20031;-58
2021/05/28 02:18:09;;;;;;;97.57;59.72;;;;;;;17.98;86.60;99627.16;4932537;29;20032;-58
2021/05/28 02:20:34;;;;;;;71.90;52.35;;;;;;;18.00;85.95;99635.81;4939224;29;20035;-58
2021/05/28 02:23:00;;;;;;;80.00;52.45;;;;;;;17.93;86.55;99647.53;4932282;29;20036;-57
2021/05/28 02:25:26;;;;;;;77.55;52.53;;;;;;;18.02;85.78;99649.66;4947609;29;20035;-57
2021/05/28 02:27:52;;;;;;;84.88;55.60;;;;;;;18.04;85.62;99650.44;4932676;29;20036;-58
2021/05/28 02:30:18;;;;;;;73.47;50.72;;;;;;;18.08;85.88;99638.84;4939549;29;20034;-58
2021/05/28 02:32:43;;;;;;;80.20;53.40;;;;;;;18.16;85.71;99629.75;4932613;29;20313;-58
2021/05/28 02:35:11;;;;;;;79.28;53.95;;;;;;;18.19;85.50;99619.09;4930826;29;20039;-58
2021/05/28 02:37:37;;;;;;;81.72;52.33;;;;;;;18.22;85.27;99619.75;4942270;29;20213;-58
2021/05/28 02:40:04;;;;;;;81.38;55.45;;;;;;;18.26;85.25;99625.69;4936604;29;20091;-58
2021/05/28 02:42:30;;;;;;;76.10;51.25;;;;;;;18.29;84.74;99629.00;4933368;29;20035;-58
2021/05/28 02:44:56;;;;;;;73.55;50.42;;;;;;;18.28;84.92;99626.44;4932113;29;20080;-58
2021/05/28 02:47:22;;;;;;;74.65;49.70;;;;;;;18.27;85.28;99633.47;4939882;29;20106;-58
2021/05/28 02:49:48;;;;;;;70.65;50.08;;;;;;;18.26;85.17;99634.41;4946952;29;20096;-57
2021/05/28 02:52:15;;;;;;;71.22;49.70;;;;;;;18.34;85.02;99634.00;4944454;29;20027;-57
2021/05/28 02:54:44;;;;;;;72.38;49.88;;;;;;;18.41;84.89;99627.50;4934339;29;20106;-58
2021/05/28 02:57:11;;;;;;;68.40;49.67;;;;;;;18.52;84.45;99624.25;4937398;29;20028;-58
2021/05/28 02:59:37;;;;;;;66.22;47.40;;;;;;;18.54;84.78;99624.16;4933896;29;20039;-57
2021/05/28 03:02:03;;;;;;;81.13;55.08;;;;;;;18.53;85.19;99630.38;4947318;29;20095;-57
2021/05/28 03:04:29;;;;;;;63.65;45.33;;;;;;;18.55;84.68;99633.75;4927551;29;20036;-57
2021/05/28 03:06:55;;;;;;;62.20;45.83;;;;;;;18.23;84.70;99590.00;4943627;29;20216;-57
2021/05/28 03:09:21;;;;;;;62.33;44.45;;;;;;;18.49;85.15;99628.84;4939407;29;20031;-57
2021/05/28 03:11:47;;;;;;;60.08;44.35;;;;;;;18.54;84.65;99618.94;4946728;29;20371;-57
2021/05/28 03:14:13;;;;;;;59.63;42.97;;;;;;;18.45;84.76;99620.28;4929113;29;20043;-57
2021/05/28 03:16:39;;;;;;;60.80;44.08;;;;;;;18.58;84.74;99615.19;4935069;29;20364;-57
2021/05/28 03:19:17;;;;;;;58.53;44.63;;;;;;;18.63;84.03;99607.94;4944732;29;20038;-57
2021/05/28 03:24:47;;;;;;;59.90;43.92;;;;;;;18.74;83.91;99617.81;4944576;29;20102;-60
2021/05/28 03:27:12;;;;;;;55.35;40.88;;;;;;;18.74;83.88;99620.44;4918657;29;20042;-60
2021/05/28 03:29:39;;;;;;;54.90;42.13;;;;;;;18.62;84.00;99608.84;4929517;29;20050;-60
2021/05/28 03:32:05;;;;;;;55.88;40.97;;;;;;;18.65;83.83;99610.47;4937585;29;20067;-60
2021/05/28 03:34:31;;;;;;;55.33;42.10;;;;;;;18.69;84.00;99612.00;4927943;29;20032;-60
2021/05/28 03:36:58;;;;;;;56.55;43.38;;;;;;;18.71;84.16;99612.72;4943077;29;20292;-59
2021/05/28 03:39:24;;;;;;;52.75;40.05;;;;;;;18.79;83.78;99616.63;4946170;29;20031;-59
2021/05/28 03:41:50;;;;;;;52.75;39.92;;;;;;;18.86;83.58;99608.41;4946009;29;20031;-58
2021/05/28 03:44:16;;;;;;;49.67;39.90;;;;;;;18.92;83.29;99616.78;4930702;29;20035;-59
2021/05/28 03:46:41;;;;;;;55.95;42.28;;;;;;;18.94;83.17;99614.94;4940125;29;20032;-59
2021/05/28 03:49:07;;;;;;;49.30;38.45;;;;;;;19.00;82.61;99616.38;4935038;29;20058;-59
2021/05/28 03:51:33;;;;;;;50.22;39.92;;;;;;;18.95;83.32;99623.66;4940036;29;20034;-60
2021/05/28 03:53:58;;;;;;;63.45;47.42;;;;;;;18.89;83.43;99621.38;4930474;29;20047;-59
2021/05/28 03:56:24;;;;;;;48.58;40.35;;;;;;;18.88;83.54;99617.06;4946024;29;20257;-58
2021/05/28 03:58:50;;;;;;;49.92;39.38;;;;;;;18.99;83.45;99622.53;4931190;29;20028;-60
2021/05/28 04:01:16;;;;;;;49.75;38.42;;;;;;;19.09;82.97;99623.69;4941729;29;20375;-58
2021/05/28 04:03:41;;;;;;;49.47;39.65;;;;;;;19.15;82.72;99619.88;4937618;29;20028;-58
2021/05/28 04:06:07;;;;;;;58.08;42.55;;;;;;;19.21;82.30;99623.91;4936335;29;20082;-58
2021/05/28 04:08:33;;;;;;;48.00;38.47;;;;;;;19.23;82.11;99622.91;4945724;29;20031;-58
2021/05/28 04:10:58;;;;;;;45.00;38.05;;;;;;;19.18;82.39;99624.09;4938032;29;20027;-58
2021/05/28 04:13:33;;;;;;;51.88;39.65;;;;;;;19.14;82.60;99636.59;4938016;29;20039;-59
2021/05/28 04:16:00;;;;;;;43.28;35.63;;;;;;;19.20;82.21;99632.75;4937587;29;20027;-59
2021/05/28 04:18:25;;;;;;;53.92;39.90;;;;;;;19.16;81.87;99616.31;4927103;29;20020;-59
2021/05/28 04:20:52;;;;;;;49.55;38.30;;;;;;;19.24;81.60;99621.09;4927103;29;20095;-59
2021/05/28 04:23:19;;;;;;;55.67;40.70;;;;;;;19.20;82.33;99630.13;4927048;29;20032;-58
2021/05/28 04:25:46;;;;;;;46.15;36.80;;;;;;;18.91;81.78;99572.25;4933617;29;20031;-58
2021/05/28 04:28:12;;;;;;;42.40;35.63;;;;;;;19.25;81.69;99633.31;4935304;29;20048;-58
2021/05/28 04:30:38;;;;;;;42.95;35.53;;;;;;;19.16;82.03;99620.75;4926965;29;20036;-58
2021/05/28 04:33:05;;;;;;;42.28;34.97;;;;;;;19.14;82.12;99626.09;4935499;29;20031;-59
2021/05/28 04:35:30;;;;;;;47.92;36.28;;;;;;;19.11;82.23;99629.72;4936703;29;20167;-59
2021/05/28 04:37:56;;;;;;;43.25;34.92;;;;;;;19.06;82.95;99631.75;4944960;29;20315;-60
2021/05/28 04:40:22;;;;;;;39.40;34.33;;;;;;;19.14;82.39;99640.03;4926627;29;20028;-60
2021/05/28 04:42:48;;;;;;;37.50;33.13;;;;;;;19.06;82.05;99620.41;4926116;29;20051;-59
2021/05/28 04:45:14;;;;;;;36.97;30.08;;;;;;;19.15;82.16;99627.75;4936325;29;20339;-59
2021/05/28 04:47:40;;;;;;;36.42;30.42;;;;;;;19.15;82.49;99640.88;4939444;29;20343;-58
2021/05/28 04:50:06;;;;;;;36.80;31.98;;;;;;;19.14;82.90;99639.22;4935230;29;20052;-59
2021/05/28 04:52:33;;;;;;;39.10;33.80;;;;;;;19.09;82.52;99638.63;4940468;29;20024;-59
2021/05/28 04:54:59;;;;;;;40.78;33.92;;;;;;;19.07;82.52;99643.09;4929764;29;20257;-59
2021/05/28 04:57:24;;;;;;;40.58;34.15;;;;;;;19.17;81.82;99636.41;4937869;29;20030;-58
2021/05/28 04:59:50;;;;;;;40.30;32.33;;;;;;;19.13;82.48;99635.72;4937247;29;20020;-58
2021/05/28 05:02:16;;;;;;;34.47;30.73;;;;;;;19.05;81.85;99603.81;4932281;29;20204;-58
2021/05/28 05:04:42;;;;;;;34.72;29.88;;;;;;;19.28;81.64;99628.75;4931057;29;20028;-60
2021/05/28 05:07:08;;;;;;;39.63;32.63;;;;;;;19.30;82.01;99626.84;4935451;29;20209;-58
2021/05/28 05:09:34;;;;;;;36.05;31.90;;;;;;;19.28;81.51;99626.13;4939984;29;20052;-60
2021/05/28 05:12:00;;;;;;;36.00;30.90;;;;;;;19.20;81.44;99622.25;4934707;29;20027;-60
2021/05/28 05:14:26;;;;;;;41.05;34.38;;;;;;;19.26;81.67;99621.88;4933073;29;20028;-60
2021/05/28 05:16:51;;;;;;;33.90;30.52;;;;;;;19.33;81.12;99617.97;4933718;29;20038;-59
2021/05/28 05:19:18;;;;;;;38.22;33.53;;;;;;;19.29;81.21;99624.31;4933855;29;20371;-59
2021/05/28 05:21:43;;;;;;;38.28;33.72;;;;;;;19.29;81.31;99629.56;4932373;29;20090;-59
2021/05/28 05:24:10;;;;;;;38.85;34.72;;;;;;;19.28;81.40;99623.50;4944805;29;20193;-61
2021/05/28 05:26:37;;;;;;;37.53;33.45;;;;;;;19.37;81.74;99629.13;4944688;29;20024;-59
2021/05/28 05:29:03;;;;;;;40.03;35.40;;;;;;;19.34;81.11;99632.78;4936860;29;20024;-59
2021/05/28 05:31:29;;;;;;;39.08;32.28;;;;;;;19.42;80.68;99633.16;4932971;29;20036;-60
2021/05/28 05:33:55;;;;;;;40.97;36.65;;;;;;;19.27;82.06;99629.66;4933758;29;20103;-60
2021/05/28 05:36:23;;;;;;;39.72;35.05;;;;;;;19.34;81.33;99630.16;4933729;29;20024;-59
2021/05/28 05:38:49;;;;;;;41.17;36.67;;;;;;;19.34;81.72;99631.94;4924997;29;20219;-60
2021/05/28 05:41:15;;;;;;;38.47;34.45;;;;;;;19.33;81.77;99625.84;4936496;29;20036;-59
2021/05/28 05:43:40;;;;;;;41.83;36.88;;;;;;;19.31;82.23;99630.31;4929820;29;20448;-59
2021/05/28 05:46:06;;;;;;;37.28;32.95;;;;;;;19.37;81.55;99618.59;4947694;29;20020;-59
2021/05/28 05:48:32;;;;;;;35.47;31.60;;;;;;;19.44;81.21;99627.84;4947885;29;20032;-59
2021/05/28 05:50:58;;;;;;;36.85;32.80;;;;;;;19.40;80.81;99623.72;4940305;29;20346;-60
2021/05/28 05:53:23;;;;;;;37.15;33.35;;;;;;;19.44;80.85;99626.06;4939361;29;20040;-59
2021/05/28 05:55:50;;;;;;;34.33;30.63;;;;;;;19.53;80.51;99614.16;4947032;29;20087;-60
2021/05/28 05:58:16;;;;;;;37.60;33.63;;;;;;;19.55;80.17;99619.31;4930189;29;20150;-60
2021/05/28 06:00:41;;;;;;;35.20;31.40;;;;;;;19.58;80.87;99619.13;4929497;29;20320;-60
2021/05/28 06:03:07;;;;;;;33.38;29.75;;;;;;;19.57;80.32;99615.66;4947649;29;20038;-59
2021/05/28 06:05:33;;;;;;;36.03;32.00;;;;;;;19.46;80.50;99613.66;4947890;29;20223;-58
2021/05/28 06:07:59;;;;;;;37.38;33.53;;;;;;;19.51;80.87;99615.16;4947614;29;20054;-59
2021/05/28 06:10:24;;;;;;;38.25;34.08;;;;;;;19.26;80.87;99579.88;4943089;29;20162;-59
2021/05/28 06:12:50;;;;;;;38.85;34.83;;;;;;;19.35;80.86;99615.25;4929358;29;20024;-59
2021/05/28 06:15:17;;;;;;;37.50;33.40;;;;;;;19.40;81.30;99614.03;4929013;29;20050;-58
2021/05/28 06:17:42;;;;;;;33.47;29.98;;;;;;;19.55;80.48;99598.28;4935346;29;20031;-59
2021/05/28 06:20:09;;;;;;;36.53;32.63;;;;;;;19.51;80.67;99605.53;4938278;29;20063;-60
2021/05/28 06:22:35;;;;;;;36.15;32.50;;;;;;;19.60;80.44;99596.25;4934066;29;20044;-61
2021/05/28 06:25:01;;;;;;;33.17;29.95;;;;;;;19.69;80.12;99598.28;4939527;29;20036;-60
2021/05/28 06:27:27;;;;;;;37.72;32.22;;;;;;;19.65;79.97;99596.78;4947481;29;20095;-60
2021/05/28 06:29:52;;;;;;;35.13;31.50;;;;;;;19.78;79.14;99595.13;4932484;29;20036;-60
2021/05/28 06:32:18;;;;;;;39.72;33.20;;;;;;;19.83;79.51;99595.69;4947070;29;20212;-58
2021/05/28 06:34:44;;;;;;;36.50;32.03;;;;;;;19.88;79.41;99595.44;4932755;29;20067;-59
2021/05/28 06:37:10;;;;;;;35.28;31.52;;;;;;;19.89;78.95;99599.72;4930775;29;20028;-59
2021/05/28 06:39:35;;;;;;;37.38;33.50;;;;;;;19.47;79.15;99562.00;4947270;29;20315;-59
2021/05/28 06:42:03;;;;;;;36.05;32.08;;;;;;;19.90;79.24;99584.81;4946513;29;20071;-59
2021/05/28 06:44:29;;;;;;;34.25;30.58;;;;;;;20.03;78.53;99585.75;4940618;29;20328;-59
2021/05/28 06:46:54;;;;;;;33.75;30.13;;;;;;;20.11;78.14;99583.47;4954345;29;20095;-59
2021/05/28 06:49:21;;;;;;;31.95;28.55;;;;;;;20.43;77.17;99579.75;4952096;29;20036;-60
2021/05/28 06:51:47;;;;;;;34.83;31.52;;;;;;;20.53;76.45;99575.56;4955280;28;20035;-60
2021/05/28 06:54:14;;;;;;;36.97;29.75;;;;;;;20.33;76.00;99580.31;4956568;28;20074;-59
2021/05/28 06:56:40;;;;;;;31.10;28.00;;;;;;;20.47;75.30;99576.81;4956987;28;20031;-59
2021/05/28 06:59:08;;;;;;;30.05;27.20;;;;;;;20.62;75.48;99582.03;4940705;28;20084;-59
2021/05/28 07:01:34;;;;;;;29.42;26.05;;;;;;;20.69;74.68;99581.56;4941612;29;20220;-60
2021/05/28 07:04:01;;;;;;;31.33;27.75;;;;;;;20.74;74.02;99581.25;4947058;29;20030;-59
2021/05/28 07:06:27;;;;;;;30.10;27.25;;;;;;;20.74;73.41;99580.44;4939227;29;20035;-59
2021/05/28 07:08:53;;;;;;;30.35;27.25;;;;;;;20.73;73.41;99576.94;4929994;29;20090;-59
2021/05/28 07:11:19;;;;;;;27.80;24.50;;;;;;;20.75;73.58;99580.34;4939146;29;20324;-59
2021/05/28 07:13:45;;;;;;;29.20;26.30;;;;;;;20.80;73.33;99580.84;4939187;29;20200;-60
2021/05/28 07:16:10;;;;;;;29.13;26.13;;;;;;;20.89;73.26;99581.19;4946383;29;20079;-59
2021/05/28 07:18:36;;;;;;;26.13;23.45;;;;;;;20.95;73.49;99579.00;4939315;29;20028;-59
2021/05/28 07:21:02;;;;;;;30.10;24.92;;;;;;;21.04;73.53;99574.91;4936707;29;20028;-58
2021/05/28 07:23:29;;;;;;;26.95;24.27;;;;;;;21.11;73.33;99583.25;4927815;29;20032;-61
2021/05/28 07:25:58;;;;;;;30.70;26.30;;;;;;;21.17;72.49;99586.31;4935642;29;20024;-60
2021/05/28 07:28:25;;;;;;;28.85;25.52;;;;;;;21.21;73.05;99585.16;4935618;29;20043;-61
2021/05/28 07:30:51;;;;;;;27.65;24.65;;;;;;;21.23;73.31;99576.31;4935066;29;20027;-60
2021/05/28 07:33:17;;;;;;;29.63;26.52;;;;;;;21.28;71.85;99587.41;4942493;29;20259;-58
2021/05/28 07:35:43;;;;;;;33.95;29.45;;;;;;;21.09;71.73;99585.13;4933830;29;20036;-59
2021/05/28 07:38:09;;;;;;;34.58;31.00;;;;;;;20.94;71.90;99581.75;4945425;29;20026;-59
2021/05/28 07:40:35;;;;;;;30.77;27.60;;;;;;;21.10;71.83;99581.56;4933553;29;20083;-59
2021/05/28 07:43:01;;;;;;;30.13;25.83;;;;;;;21.24;72.19;99578.00;4935797;29;20027;-60
2021/05/28 07:45:27;;;;;;;30.13;26.98;;;;;;;21.25;71.95;99580.53;4938433;29;20031;-59
2021/05/28 07:47:53;;;;;;;27.23;22.80;;;;;;;21.32;72.21;99587.06;4938440;29;20028;-59
2021/05/28 07:50:19;;;;;;;26.38;22.90;;;;;;;21.33;70.80;99578.19;4927643;29;20074;-60
2021/05/28 07:52:45;;;;;;;23.90;21.42;;;;;;;21.42;71.86;99574.13;4927504;29;20068;-60
2021/05/28 07:55:11;;;;;;;24.17;21.77;;;;;;;21.59;70.87;99586.19;4937366;29;20324;-59
2021/05/28 07:57:37;;;;;;;26.55;21.58;;;;;;;21.45;68.61;99586.22;4932886;29;20035;-58
2021/05/28 08:00:05;;;;;;;22.33;19.83;;;;;;;21.63;69.25;99590.25;4927262;29;20024;-59
2021/05/28 08:02:31;;;;;;;21.17;19.00;;;;;;;21.71;70.06;99589.75;4940447;29;20059;-59
2021/05/28 08:04:57;;;;;;;20.83;17.98;;;;;;;21.89;68.82;99585.81;4938072;29;20253;-60
2021/05/28 08:07:22;;;;;;;19.23;16.92;;;;;;;22.10;68.20;99584.41;4926560;29;20030;-60
2021/05/28 08:09:49;;;;;;;20.33;16.80;;;;;;;22.05;68.11;99568.91;4927037;29;20024;-60
2021/05/28 08:12:17;;;;;;;19.83;17.70;;;;;;;22.26;66.27;99570.97;4927585;29;20027;-60
2021/05/28 08:14:42;;;;;;;21.70;17.92;;;;;;;22.23;64.45;99580.78;4940614;29;20376;-60
2021/05/28 08:17:08;;;;;;;19.77;16.92;;;;;;;22.31;66.08;99556.47;4936199;29;20032;-61
2021/05/28 08:19:34;;;;;;;20.65;16.58;;;;;;;22.50;64.08;99574.50;4934691;29;20264;-60
2021/05/28 08:21:59;;;;;;;16.33;14.77;;;;;;;22.66;65.29;99574.22;4934960;29;20023;-61
2021/05/28 08:24:25;;;;;;;18.17;15.07;;;;;;;22.65;63.71;99555.84;4926895;29;20062;-61
2021/05/28 08:26:51;;;;;;;16.73;14.40;;;;;;;22.68;63.79;99559.09;4941736;29;20036;-61
2021/05/28 08:29:17;;;;;;;16.65;14.95;;;;;;;22.67;64.04;99548.66;4937430;29;20035;-61
2021/05/28 08:31:43;;;;;;;16.20;14.60;;;;;;;22.77;64.89;99549.63;4937788;29;20031;-61
2021/05/28 08:34:09;;;;;;;15.98;14.43;;;;;;;22.73;63.92;99554.31;4935999;29;20055;-61
2021/05/28 08:36:34;;;;;;;19.42;15.38;;;;;;;22.74;65.66;99552.50;4934473;29;20035;-62
2021/05/28 08:39:00;;;;;;;14.98;13.48;;;;;;;22.66;63.90;99541.66;4942704;29;20023;-61
2021/05/28 08:41:27;;;;;;;12.88;11.10;;;;;;;22.58;63.00;99556.28;4941363;29;20205;-63
2021/05/28 08:43:53;;;;;;;11.20;10.05;;;;;;;22.64;64.08;99555.00;4934441;29;20096;-62
2021/05/28 08:46:21;;;;;;;12.82;11.45;;;;;;;22.56;61.80;99544.16;4926653;29;20035;-62
2021/05/28 08:48:50;;;;;;;16.08;12.77;;;;;;;22.85;62.87;99549.91;4926430;29;20051;-62
2021/05/28 08:51:17;;;;;;;21.58;16.85;;;;;;;22.86;62.03;99554.25;4926668;29;20036;-62
2021/05/28 08:53:43;;;;;;;20.83;15.57;;;;;;;22.86;62.57;99548.09;4934044;29;20063;-62
2021/05/28 08:56:09;;;;;;;20.48;15.15;;;;;;;22.88;61.30;99541.75;4940644;29;20224;-62
2021/05/28 08:58:35;;;;;;;14.23;12.40;;;;;;;22.86;61.21;99534.91;4943322;29;20310;-62
2021/05/28 09:01:03;;;;;;;16.15;13.32;;;;;;;23.02;61.84;99542.53;4944617;29;20075;-63
2021/05/28 09:03:31;;;;;;;18.30;14.32;;;;;;;22.64;62.46;99491.63;4946383;29;20355;-63
2021/05/28 09:05:59;;;;;;;16.42;12.50;;;;;;;22.92;60.65;99527.38;4937083;29;20055;-63
2021/05/28 09:08:30;;;;;;;11.70;10.27;;;;;;;23.14;59.48;99527.56;4941034;29;20036;-63
2021/05/28 09:11:09;;;;;;;12.40;10.95;;;;;;;23.06;57.49;99536.06;4926549;29;20076;-62
2021/05/28 09:13:54;;;;;;;13.05;10.60;;;;;;;22.79;58.18;99496.72;4938711;29;20063;-62
2021/05/28 09:16:27;;;;;;;13.30;10.15;;;;;;;22.82;59.61;99502.63;4941418;29;20347;-62
2021/05/28 09:18:55;;;;;;;14.35;11.23;;;;;;;23.09;59.20;99541.94;4948749;29;20033;-62
2021/05/28 09:21:31;;;;;;;13.90;11.43;;;;;;;23.04;58.44;99540.59;4938007;29;20095;-63
2021/05/28 09:24:00;;;;;;;11.23;10.10;;;;;;;22.96;58.83;99540.34;4937913;29;20082;-63
2021/05/28 09:26:36;;;;;;;11.55;10.40;;;;;;;22.86;59.20;99540.19;4941064;29;20039;-62
2021/05/28 09:29:05;;;;;;;13.48;10.43;;;;;;;22.88;58.86;99541.75;4932332;29;20436;-63
2021/05/28 09:31:32;;;;;;;13.95;9.57;;;;;;;22.86;58.88;99542.81;4929907;29;20123;-63
2021/05/28 09:34:03;;;;;;;11.53;10.33;;;;;;;22.90;58.75;99544.28;4945349;29;20034;-63
2021/05/28 09:36:33;;;;;;;10.18;9.15;;;;;;;22.84;59.19;99542.94;4934117;29;20228;-62
2021/05/28 09:39:14;;;;;;;9.65;8.75;;;;;;;22.56;56.99;99499.28;4947912;29;20043;-62
2021/05/28 09:41:51;;;;;;;9.00;8.10;;;;;;;22.78;58.17;99535.50;4929677;29;20036;-62
2021/05/28 09:44:22;;;;;;;11.10;9.30;;;;;;;22.34;57.58;99498.22;4947752;29;20047;-61
2021/05/28 09:47:19;;;;;;;11.95;10.20;;;;;;;22.63;58.17;99542.78;4948201;29;20031;-63
2021/05/28 09:49:50;;;;;;;11.15;9.32;;;;;;;22.38;59.23;99490.94;4940422;29;20067;-62
2021/05/28 09:52:28;;;;;;;10.63;9.52;;;;;;;22.62;56.97;99534.94;4940468;29;20046;-64
2021/05/28 09:54:59;;;;;;;9.70;8.55;;;;;;;22.60;59.03;99527.13;4931782;29;20348;-63
2021/05/28 09:57:42;;;;;;;10.33;9.20;;;;;;;22.73;59.21;99533.19;4941135;29;20110;-63
2021/05/28 10:00:21;;;;;;;18.00;14.18;;;;;;;22.72;57.21;99530.69;4938665;29;20086;-62
2021/05/28 10:03:08;;;;;;;10.07;9.23;;;;;;;22.87;57.84;99540.09;4932332;29;20028;-62
2021/05/28 10:05:39;;;;;;;11.82;10.48;;;;;;;22.93;57.94;99544.03;4935522;29;20024;-61
2021/05/28 10:08:07;;;;;;;10.77;9.60;;;;;;;22.91;58.13;99535.41;4927959;29;20025;-61
2021/05/28 10:10:35;;;;;;;12.20;10.10;;;;;;;22.82;60.11;99534.31;4941559;29;20339;-61
2021/05/28 10:13:10;;;;;;;12.80;11.15;;;;;;;22.62;60.13;99493.56;4946833;29;20035;-61
2021/05/28 10:15:38;;;;;;;13.10;11.73;;;;;;;22.67;60.27;99532.81;4929327;29;20027;-61
2021/05/28 10:18:04;;;;;;;17.05;12.18;;;;;;;22.52;60.17;99538.28;4929225;29;20024;-61
2021/05/28 10:20:30;;;;;;;12.60;11.40;;;;;;;22.66;60.87;99537.25;4935456;29;20038;-62
2021/05/28 10:22:56;;;;;;;12.05;10.93;;;;;;;22.31;57.46;99534.53;4948327;29;20124;-61
2021/05/28 10:25:23;;;;;;;11.40;10.30;;;;;;;22.53;59.94;99534.69;4946458;29;20103;-61
2021/05/28 10:27:58;;;;;;;10.82;9.80;;;;;;;22.36;60.70;99493.69;4946874;29;20023;-61
2021/05/28 10:30:26;;;;;;;12.73;11.02;;;;;;;22.50;59.87;99529.63;4947259;29;20039;-62
2021/05/28 10:33:18;;;;;;;15.52;11.73;;;;;;;22.49;60.60;99530.59;4947770;29;20249;-61
2021/05/28 10:35:50;;;;;;;18.23;12.75;;;;;;;22.19;60.59;99487.00;4947756;29;20032;-61
2021/05/28 10:38:34;;;;;;;15.25;12.15;;;;;;;22.53;60.55;99533.81;4953585;29;20177;-60
2021/05/28 10:41:00;;;;;;;14.45;12.13;;;;;;;22.45;63.22;99541.47;4953272;29;20047;-61
2021/05/28 10:43:27;;;;;;;14.88;12.65;;;;;;;22.40;61.13;99529.47;4958127;28;20051;-61
2021/05/28 10:46:02;;;;;;;13.95;12.43;;;;;;;22.45;60.51;99531.75;4956412;29;20335;-61
2021/05/28 10:48:37;;;;;;;13.63;12.32;;;;;;;22.43;61.70;99536.28;4952759;29;20075;-61
2021/05/28 10:51:23;;;;;;;13.27;11.90;;;;;;;22.39;62.08;99548.06;4955646;29;20358;-61
2021/05/28 10:53:52;;;;;;;12.55;11.35;;;;;;;22.36;61.25;99529.78;4951780;29;20042;-62
2021/05/28 10:56:23;;;;;;;13.43;11.80;;;;;;;22.22;63.00;99528.13;4956204;29;20095;-62
2021/05/28 10:58:52;;;;;;;11.75;10.18;;;;;;;22.23;60.46;99520.09;4953807;29;20016;-61
2021/05/28 11:01:33;;;;;;;12.70;9.25;;;;;;;22.15;59.82;99519.81;4956158;28;20034;-62
2021/05/28 11:04:06;;;;;;;8.70;7.43;;;;;;;22.10;57.26;99516.66;4953859;29;20195;-62
2021/05/28 11:06:34;;;;;;;9.82;7.35;;;;;;;21.98;58.11;99523.66;4925738;29;20085;-61
2021/05/28 11:09:07;;;;;;;9.77;7.70;;;;;;;21.97;56.00;99523.78;4931633;29;20509;-60
2021/05/28 11:11:35;;;;;;;9.82;7.05;;;;;;;22.03;55.26;99521.56;4928028;29;20036;-62
2021/05/28 11:14:10;;;;;;;8.02;6.53;;;;;;;21.76;56.02;99479.53;4927951;29;20035;-62
2021/05/28 11:16:55;;;;;;;9.07;7.30;;;;;;;21.97;55.87;99513.22;4932858;29;20035;-62
2021/05/28 11:19:26;;;;;;;8.50;7.53;;;;;;;22.02;56.35;99508.47;4936159;29;20040;-62
2021/05/28 11:21:55;;;;;;;8.27;7.38;;;;;;;22.04;56.45;99519.75;4938061;29;20024;-61
2021/05/28 11:24:40;;;;;;;7.90;7.10;;;;;;;22.01;56.58;99502.34;4934722;29;20059;-62